Meteo Giornale » Osservazioni meteo Italia » Decimomannu

ore: 05:55 - Osservazioni Meteo Decimomannu
Lat. 39° 21' N Lon. 8° 58' E Alt. 29 metri s.l.m.

poco_nuvoloso Europe/Rome

15 °C

Poco Nuvoloso

Temp. 24 Ore

10 °C

16 °C

Nord-Ovest

35.2 Km/h

Dew point 11 °C

Umidità 76 %

Visibilità  10 Km

Il sole sorge alle ore 07:34

Il sole tramonta alle ore 17:03

Data e Ora Cielo e Fenomeni T °C DP °C Um. % Pres. hPa Vis. km Vento km/h
Oggi h: 05:55 poco_nuvoloso Poco Nuvoloso 15 11 76 1005 10 NO 35.2
Oggi h: 04:55 molto_nuvoloso Molto Nuvoloso 11 9 87 1005 10 NO 24
Oggi h: 03:55 molto_nuvoloso Molto Nuvoloso 11 9 87 1004 10 NO 27.8
Oggi h: 02:55 nuvoloso Nuvoloso 11 9 87 1003 10 NO 38.8
Oggi h: 01:55 coperto_pioggia Pioggia Debole 11 9 87 1003 10 NO 37
Oggi h: 00:55 coperto_pioggia Pioggia Debole 13 11 87 1004 10 O/NO 40.7
Ieri h: 23:55 nuvoloso Nuvoloso 15 12 82 1003 10 NO 33.3
Ieri h: 22:55 nuvoloso Nuvoloso 15 9 67 1001 10 O/NO 57.3
Ieri h: 21:55 nuvoloso Nuvoloso 15 9 67 1000 10 O/NO 51.8
Ieri h: 20:55 nuvoloso Nuvoloso 16 10 67 1000 10 NO 38.8
Ieri h: 18:55 nuvoloso Nuvoloso 16 9 63 999 7 O/NO 50
Ieri h: 17:55 nuvoloso Nuvoloso 16 11 72 999 7 O/NO 40.7
Ieri h: 16:55 molto_nuvoloso Molto Nuvoloso 15 14 93 998 6 O/NO 24
Ieri h: 15:55 coperto_pioggia Pioggia Debole Foschia 16 14 87 998 5 O/NO 22.2
Ieri h: 15:10 coperto_pioggia Pioggia Debole 16 14 87 998 7 O 33.3
Ieri h: 14:55 coperto_pioggia Pioggia Debole 16 14 87 998 7 O 31.5
Ieri h: 14:37 coperto_pioggia Pioggia Debole 15 13 87 998 7 O 29.6
Ieri h: 12:55 coperto_pioggia Pioggia Debole 15 14 93 999 7 O 18.5
Ieri h: 11:55 coperto_pioggia Pioggia Debole 15 13 87 1000 8 O/SO 27.8
Ieri h: 10:55 coperto_pioggia Pioggia Debole 14 12 87 1001 8 O/SO 16.7
Ieri h: 09:55 molto_nuvoloso Molto Nuvoloso 14 12 87 1001 8 O 18.5
Ieri h: 08:55 coperto_pioggia Pioggia Debole 13 11 87 1001 9 O/SO 14.8
Ieri h: 07:55 coperto_pioggia Pioggia Debole 13 11 87 1001 9 O 13
Ieri h: 06:55 molto_nuvoloso Molto Nuvoloso 11 9 87 1001 10 O/SO 9.3
Ieri h: 05:55 molto_nuvoloso Molto Nuvoloso 10 7 81 1001 10 N 3.7